<?xml version="1.0" encoding="UTF-8" standalone="no" ?>
<gpx xmlns="http://www.topografix.com/GPX/1/1" xmlns:xsi="http://www.w3.org/2001/XMLSchema-instance" xsi:schemaLocation="http://www.topografix.com/GPX/1/1 http://www.topografix.com/GPX/1/1/gpx.xsd" version="1.1" creator="VisuGPX - https://www.visugpx.com">
  <metadata>
    <name>Briollay_CheffesValleeSarthe_17km</name>
    <desc><![CDATA[gnerando idor:8115166]]></desc>
  </metadata>
  <trk>
    <name><![CDATA[Briollay_CheffesValleeSarthe_16.6km-8115166]]></name>
    <extensions>
      <line xmlns="http://www.topografix.com/GPX/gpx_style/0/2">
        <color>0000FF</color>
        <width>4</width>
      </line>
    </extensions>
    <trkseg>
      <trkpt lat="47.56697" lon="-0.50612">
        <ele>20</ele>
        <time>2023-10-31T17:42:56Z</time>
      </trkpt>
      <trkpt lat="47.56749" lon="-0.50734">
        <ele>17</ele>
        <time>2023-10-31T17:45:06Z</time>
      </trkpt>
      <trkpt lat="47.56929" lon="-0.50674">
        <ele>18</ele>
        <time>2023-10-31T17:49:12Z</time>
      </trkpt>
      <trkpt lat="47.57018" lon="-0.50987">
        <ele>16</ele>
        <time>2023-10-31T17:54:18Z</time>
      </trkpt>
      <trkpt lat="47.56923" lon="-0.51211">
        <ele>7</ele>
        <time>2023-10-31T17:58:16Z</time>
      </trkpt>
      <trkpt lat="47.58104" lon="-0.50975">
        <ele>15</ele>
        <time>2023-10-31T18:24:46Z</time>
      </trkpt>
      <trkpt lat="47.58081" lon="-0.50751">
        <ele>13</ele>
        <time>2023-10-31T18:28:10Z</time>
      </trkpt>
      <trkpt lat="47.58506" lon="-0.50442">
        <ele>16</ele>
        <time>2023-10-31T18:38:42Z</time>
      </trkpt>
      <trkpt lat="47.58894" lon="-0.49606">
        <ele>16</ele>
        <time>2023-10-31T18:53:55Z</time>
      </trkpt>
      <trkpt lat="47.59065" lon="-0.49447">
        <ele>18</ele>
        <time>2023-10-31T18:58:25Z</time>
      </trkpt>
      <trkpt lat="47.59433" lon="-0.49627">
        <ele>19</ele>
        <time>2023-10-31T19:07:02Z</time>
      </trkpt>
      <trkpt lat="47.59522" lon="-0.4976">
        <ele>17</ele>
        <time>2023-10-31T19:09:51Z</time>
      </trkpt>
      <trkpt lat="47.59592" lon="-0.50086">
        <ele>17</ele>
        <time>2023-10-31T19:14:58Z</time>
      </trkpt>
      <trkpt lat="47.59965" lon="-0.50563">
        <ele>16</ele>
        <time>2023-10-31T19:25:56Z</time>
      </trkpt>
      <trkpt lat="47.60246" lon="-0.51459">
        <ele>20</ele>
        <time>2023-10-31T19:40:45Z</time>
      </trkpt>
      <trkpt lat="47.60411" lon="-0.51425">
        <ele>20</ele>
        <time>2023-10-31T19:44:27Z</time>
      </trkpt>
      <trkpt lat="47.60764" lon="-0.5155">
        <ele>19</ele>
        <time>2023-10-31T19:52:31Z</time>
      </trkpt>
      <trkpt lat="47.60856" lon="-0.51605">
        <ele>19</ele>
        <time>2023-10-31T19:54:44Z</time>
      </trkpt>
      <trkpt lat="47.61247" lon="-0.51434">
        <ele>19</ele>
        <time>2023-10-31T20:03:48Z</time>
      </trkpt>
      <trkpt lat="47.61472" lon="-0.51249">
        <ele>21</ele>
        <time>2023-10-31T20:09:31Z</time>
      </trkpt>
      <trkpt lat="47.61435" lon="-0.50893">
        <ele>19</ele>
        <time>2023-10-31T20:14:55Z</time>
      </trkpt>
      <trkpt lat="47.62034" lon="-0.50721">
        <ele>19</ele>
        <time>2023-10-31T20:28:29Z</time>
      </trkpt>
      <trkpt lat="47.62184" lon="-0.50605">
        <ele>20</ele>
        <time>2023-10-31T20:32:15Z</time>
      </trkpt>
      <trkpt lat="47.62297" lon="-0.50344">
        <ele>19</ele>
        <time>2023-10-31T20:36:54Z</time>
      </trkpt>
      <trkpt lat="47.62282" lon="-0.50146">
        <ele>17</ele>
        <time>2023-10-31T20:39:53Z</time>
      </trkpt>
      <trkpt lat="47.62138" lon="-0.50408">
        <ele>17</ele>
        <time>2023-10-31T20:44:57Z</time>
      </trkpt>
      <trkpt lat="47.6182" lon="-0.50627">
        <ele>16</ele>
        <time>2023-10-31T20:52:45Z</time>
      </trkpt>
      <trkpt lat="47.61461" lon="-0.50743">
        <ele>17</ele>
        <time>2023-10-31T21:00:55Z</time>
      </trkpt>
      <trkpt lat="47.61212" lon="-0.5067">
        <ele>18</ele>
        <time>2023-10-31T21:06:34Z</time>
      </trkpt>
      <trkpt lat="47.60989" lon="-0.50674">
        <ele>16</ele>
        <time>2023-10-31T21:11:32Z</time>
      </trkpt>
      <trkpt lat="47.6083" lon="-0.5076">
        <ele>17</ele>
        <time>2023-10-31T21:15:18Z</time>
      </trkpt>
      <trkpt lat="47.60422" lon="-0.50674">
        <ele>18</ele>
        <time>2023-10-31T21:24:28Z</time>
      </trkpt>
      <trkpt lat="47.59988" lon="-0.50417">
        <ele>16</ele>
        <time>2023-10-31T21:34:51Z</time>
      </trkpt>
      <trkpt lat="47.59687" lon="-0.50056">
        <ele>17</ele>
        <time>2023-10-31T21:43:28Z</time>
      </trkpt>
      <trkpt lat="47.59589" lon="-0.49696">
        <ele>20</ele>
        <time>2023-10-31T21:49:17Z</time>
      </trkpt>
      <trkpt lat="47.59389" lon="-0.49421">
        <ele>17</ele>
        <time>2023-10-31T21:55:21Z</time>
      </trkpt>
      <trkpt lat="47.59236" lon="-0.49309">
        <ele>17</ele>
        <time>2023-10-31T21:59:09Z</time>
      </trkpt>
      <trkpt lat="47.59105" lon="-0.49288">
        <ele>20</ele>
        <time>2023-10-31T22:02:05Z</time>
      </trkpt>
      <trkpt lat="47.58857" lon="-0.49412">
        <ele>20</ele>
        <time>2023-10-31T22:07:54Z</time>
      </trkpt>
      <trkpt lat="47.58712" lon="-0.4979">
        <ele>16</ele>
        <time>2023-10-31T22:14:25Z</time>
      </trkpt>
      <trkpt lat="47.5853" lon="-0.50258">
        <ele>15</ele>
        <time>2023-10-31T22:22:32Z</time>
      </trkpt>
      <trkpt lat="47.58173" lon="-0.50558">
        <ele>15</ele>
        <time>2023-10-31T22:31:39Z</time>
      </trkpt>
      <trkpt lat="47.58026" lon="-0.50691">
        <ele>14</ele>
        <time>2023-10-31T22:35:29Z</time>
      </trkpt>
      <trkpt lat="47.57742" lon="-0.5073">
        <ele>15</ele>
        <time>2023-10-31T22:41:50Z</time>
      </trkpt>
      <trkpt lat="47.57702" lon="-0.50228">
        <ele>16</ele>
        <time>2023-10-31T22:49:25Z</time>
      </trkpt>
      <trkpt lat="47.57432" lon="-0.50314">
        <ele>19</ele>
        <time>2023-10-31T22:55:33Z</time>
      </trkpt>
      <trkpt lat="47.57207" lon="-0.50502">
        <ele>18</ele>
        <time>2023-10-31T23:01:18Z</time>
      </trkpt>
      <trkpt lat="47.56934" lon="-0.50597">
        <ele>21</ele>
        <time>2023-10-31T23:07:32Z</time>
      </trkpt>
      <trkpt lat="47.5692" lon="-0.50708">
        <ele>18</ele>
        <time>2023-10-31T23:09:14Z</time>
      </trkpt>
      <trkpt lat="47.56775" lon="-0.50717">
        <ele>18</ele>
        <time>2023-10-31T23:12:27Z</time>
      </trkpt>
      <trkpt lat="47.56694" lon="-0.50614">
        <ele>20</ele>
        <time>2023-10-31T23:14:50Z</time>
      </trkpt>
    </trkseg>
  </trk>
</gpx>